Terminal Aerodrome Forecast
Issued by NWS

Home | Current Version | Previous Version | Text Only | Print | Product List | Glossary On
Versions: 1 2 3 4 5 6 7 8 9 10 11 12 13 14 15 16 17 18 19 20
000
FTUS43 KAPX 300324 AAA
TAFTVC
TAF AMD
KTVC 300324Z 3003/3024 VRB03KT P6SM SCT020 OVC040
      TEMPO 3003/3006 3SM -SHRA BR BKN020
     FM300600 30005KT 3SM -SHRA BR OVC008
     FM301200 33010KT 5SM -SHRA BR OVC008
     FM301600 01011G19KT P6SM -SHRA SCT010 OVC035
     FM301900 01013G21KT P6SM BKN090=

USA.gov is the U.S. government's official web portal to all federal, state and local government web resources and services.